Time;durP1;ratioP1;P1;durP2;ratioP2;P2;SDS_P1;SDS_P2;PMS_P1;PMS_P2;Temp;Humidity;BMP_temperature;BMP_pressure;BME280_temperature;BME280_humidity;BME280_pressure;Samples;Min_cycle;Max_cycle;Signal;HPM_P1;HPM_P2
2022/05/16 00:02:36;;;;;;;9.80;5.00;;;;;;;14.16;48.21;99376.30;232615;1223;140908;-60
2022/05/16 00:07:39;;;;;;;10.10;5.40;;;;;;;14.09;48.70;99378.23;232761;1223;138384;-60
2022/05/16 00:12:43;;;;;;;11.90;5.30;;;;;;;14.01;48.71;99381.43;232302;1223;138893;-60
2022/05/16 00:17:47;;;;;;;8.70;5.00;;;;;;;13.91;48.80;99376.45;232320;1222;229822;-60
2022/05/16 00:22:50;;;;;;;9.60;4.90;;;;;;;13.82;49.02;99377.21;232839;1222;139072;-60
2022/05/16 00:27:53;;;;;;;9.80;5.00;;;;;;;13.75;49.02;99374.71;232867;1222;140514;-60
2022/05/16 00:32:56;;;;;;;10.40;4.80;;;;;;;13.70;49.14;99374.36;232763;1222;138301;-60
2022/05/16 00:37:59;;;;;;;8.20;4.60;;;;;;;13.63;49.18;99373.56;232927;1222;139132;-60
2022/05/16 00:43:08;;;;;;;9.50;4.70;;;;;;;13.59;49.86;99368.91;232961;1222;139360;-60
2022/05/16 00:48:11;;;;;;;10.10;4.80;;;;;;;13.53;49.96;99365.92;232586;1222;139122;-60
2022/05/16 00:53:15;;;;;;;9.40;4.70;;;;;;;13.46;49.58;99364.58;232888;1222;138719;-60
2022/05/16 00:58:19;;;;;;;11.20;4.30;;;;;;;13.42;49.92;99365.73;232070;1223;140252;-60
2022/05/16 01:08:45;;;;;;;8.00;3.70;;;;;;;13.32;50.04;99369.09;231668;1222;138776;-60
2022/05/16 01:13:48;;;;;;;6.40;3.80;;;;;;;13.27;50.26;99369.64;232691;1222;142591;-60
2022/05/16 01:18:51;;;;;;;7.50;3.50;;;;;;;13.21;50.33;99375.18;232730;1222;139469;-59
2022/05/16 01:24:10;;;;;;;7.00;3.20;;;;;;;13.15;50.46;99371.82;232879;1222;138491;-60
2022/05/16 01:29:13;;;;;;;7.40;3.20;;;;;;;13.07;50.69;99379.16;232710;1223;139307;-60
2022/05/16 01:34:16;;;;;;;9.30;3.10;;;;;;;12.99;50.75;99384.15;232748;1222;139430;-60
2022/05/16 01:39:19;;;;;;;6.40;3.00;;;;;;;12.93;51.05;99384.86;232593;1222;141228;-59
2022/05/16 01:44:23;;;;;;;6.80;3.60;;;;;;;12.89;50.90;99382.09;231279;1222;139372;-61
2022/05/16 01:49:26;;;;;;;9.90;3.50;;;;;;;12.84;50.83;99380.12;232025;1222;138737;-61
2022/05/16 01:54:29;;;;;;;6.80;3.10;;;;;;;12.81;50.97;99376.80;232610;1222;139219;-60
2022/05/16 01:59:32;;;;;;;4.20;3.10;;;;;;;12.76;51.05;99374.75;232890;1222;139128;-58
2022/05/16 02:04:35;;;;;;;6.50;3.00;;;;;;;12.71;51.10;99373.65;232192;1223;139187;-61
2022/05/16 02:09:38;;;;;;;4.60;2.70;;;;;;;12.65;51.19;99365.02;232793;1222;138939;-60
2022/05/16 02:14:41;;;;;;;4.50;2.60;;;;;;;12.63;51.38;99364.95;232891;1224;139282;-60
2022/05/16 02:19:44;;;;;;;8.30;2.80;;;;;;;12.60;51.24;99364.96;232747;1223;139437;-60
2022/05/16 02:24:47;;;;;;;6.10;3.10;;;;;;;12.54;51.35;99367.29;231665;1223;138390;-62
2022/05/16 02:29:50;;;;;;;5.90;2.60;;;;;;;12.51;51.43;99366.95;232936;1223;139329;-63
2022/05/16 02:34:53;;;;;;;9.50;3.10;;;;;;;12.48;51.82;99369.45;232858;1222;139014;-63
2022/05/16 02:39:56;;;;;;;4.10;2.30;;;;;;;12.50;51.88;99367.95;232816;1224;139237;-63
2022/05/16 02:44:59;;;;;;;4.50;1.80;;;;;;;12.53;51.40;99368.64;232863;1223;138683;-63
2022/05/16 02:50:03;;;;;;;6.60;2.30;;;;;;;12.63;51.30;99373.16;232816;1224;139075;-62
2022/05/16 02:55:07;;;;;;;7.20;2.50;;;;;;;12.73;51.06;99379.06;232966;1223;139582;-63
2022/05/16 03:00:12;;;;;;;5.40;2.40;;;;;;;12.83;50.92;99385.02;232438;1223;139098;-63
2022/05/16 03:05:16;;;;;;;8.10;2.70;;;;;;;12.88;50.72;99384.86;232673;1224;140668;-63
2022/05/16 03:10:19;;;;;;;298.70;199.80;;;;;;;12.95;51.10;99386.70;232849;1222;138473;-62
2022/05/16 03:15:22;;;;;;;25.20;18.00;;;;;;;13.64;53.39;99384.16;232624;1222;139717;-62
2022/05/16 03:20:25;;;;;;;30.30;23.70;;;;;;;14.83;52.94;99380.36;232808;1223;139645;-59
2022/05/16 03:25:29;;;;;;;9.20;5.40;;;;;;;15.34;51.12;99376.55;231655;1223;139717;-62
2022/05/16 03:30:32;;;;;;;11.60;5.30;;;;;;;15.28;49.23;99383.54;232777;1224;139228;-65
2022/05/16 03:35:35;;;;;;;10.00;4.80;;;;;;;15.00;48.92;99386.26;232899;1223;139118;-61
2022/05/16 03:40:45;;;;;;;19.20;14.20;;;;;;;14.79;48.71;99394.80;232750;1224;139225;-59
2022/05/16 03:45:49;;;;;;;8.50;3.90;;;;;;;14.52;48.48;99390.45;232918;1224;139409;-58
2022/05/16 03:50:52;;;;;;;7.00;3.40;;;;;;;14.27;48.37;99391.18;232860;1224;139242;-57
2022/05/16 03:55:55;;;;;;;7.40;3.60;;;;;;;14.07;48.68;99394.41;232462;1223;138872;-55
2022/05/16 04:00:58;;;;;;;11.90;3.50;;;;;;;13.98;48.71;99394.70;232338;1221;139264;-57
2022/05/16 04:06:02;;;;;;;7.60;3.10;;;;;;;13.90;48.78;99391.46;232978;1223;139251;-56
2022/05/16 04:11:06;;;;;;;5.50;3.40;;;;;;;13.87;48.64;99395.29;232710;1224;139908;-57
2022/05/16 04:16:09;;;;;;;6.90;3.30;;;;;;;13.84;48.88;99394.95;232954;1222;138977;-56
2022/05/16 04:21:13;;;;;;;10.30;6.20;;;;;;;13.86;48.95;99402.63;232738;1224;139567;-59
2022/05/16 04:26:16;;;;;;;8.90;3.60;;;;;;;13.91;49.12;99408.87;232783;1223;140062;-58
2022/05/16 04:31:19;;;;;;;9.40;3.60;;;;;;;13.92;49.15;99406.13;232870;1223;139072;-57
2022/05/16 04:36:23;;;;;;;9.30;3.30;;;;;;;13.94;48.74;99408.88;232867;1224;138958;-58
2022/05/16 04:46:48;;;;;;;7.70;3.30;;;;;;;14.06;49.09;99405.50;231753;1223;139302;-55
2022/05/16 04:51:51;;;;;;;12.10;4.30;;;;;;;14.10;49.03;99403.98;232821;1224;139413;-57
2022/05/16 04:56:54;;;;;;;12.20;4.30;;;;;;;14.18;49.04;99406.10;232786;1223;139685;-57
2022/05/16 05:01:58;;;;;;;11.30;3.90;;;;;;;14.27;49.04;99405.85;232416;1223;139248;-58
2022/05/16 05:07:03;;;;;;;11.10;3.50;;;;;;;14.33;49.10;99397.88;232703;1224;139975;-56
2022/05/16 05:17:28;;;;;;;11.00;4.40;;;;;;;14.57;49.28;99402.98;232747;1223;138900;-57
2022/05/16 05:22:31;;;;;;;13.10;4.10;;;;;;;14.70;49.05;99400.02;232758;1224;140243;-57
2022/05/16 05:27:34;;;;;;;8.20;3.90;;;;;;;14.85;48.87;99404.50;232399;1223;140385;-57
2022/05/16 05:32:37;;;;;;;9.30;4.00;;;;;;;15.03;48.97;99402.45;232553;1222;139965;-57
2022/05/16 05:37:40;;;;;;;14.80;4.40;;;;;;;15.25;48.98;99401.36;232519;1222;139582;-57
2022/05/16 05:42:43;;;;;;;11.40;4.30;;;;;;;15.47;48.97;99404.33;232843;1223;140068;-60
2022/05/16 05:47:46;;;;;;;11.60;5.10;;;;;;;15.57;48.47;99397.10;232989;1223;139640;-57
2022/05/16 05:52:50;;;;;;;18.50;5.00;;;;;;;15.68;48.50;99394.00;232667;1224;139676;-58
2022/05/16 05:57:53;;;;;;;11.50;4.90;;;;;;;15.82;48.49;99400.94;232748;1223;139222;-59
2022/05/16 06:02:56;;;;;;;12.80;5.20;;;;;;;15.95;48.35;99399.77;232162;1223;140124;-59
2022/05/16 06:07:59;;;;;;;13.30;5.40;;;;;;;16.10;48.46;99402.46;232856;1223;139740;-58
2022/05/16 06:13:02;;;;;;;14.00;5.30;;;;;;;16.24;48.01;99398.52;231998;1223;139097;-59
2022/05/16 06:18:05;;;;;;;14.10;5.10;;;;;;;16.29;47.99;99390.06;233174;1223;139061;-58
2022/05/16 06:23:08;;;;;;;9.50;5.20;;;;;;;16.44;48.28;99393.33;232163;1223;141277;-59
2022/05/16 06:28:17;;;;;;;18.40;5.60;;;;;;;16.57;48.09;99387.66;232841;1223;139321;-58
2022/05/16 06:33:22;;;;;;;12.70;5.00;;;;;;;16.73;48.05;99382.19;232907;1223;139870;-58
2022/05/16 06:38:29;;;;;;;11.20;4.70;;;;;;;16.92;47.69;99379.41;232215;1223;139535;-58
2022/05/16 06:43:32;;;;;;;9.00;3.90;;;;;;;17.04;47.41;99387.70;232294;1223;138546;-59
2022/05/16 06:48:35;;;;;;;14.90;4.80;;;;;;;17.19;47.37;99386.86;232761;1222;138624;-58
2022/05/16 06:53:38;;;;;;;14.10;4.40;;;;;;;17.39;47.50;99388.15;232297;1223;139385;-58
2022/05/16 06:58:41;;;;;;;14.20;4.70;;;;;;;17.60;47.02;99393.38;232760;1223;139237;-58
2022/05/16 07:03:44;;;;;;;8.50;4.20;;;;;;;17.77;46.78;99393.19;232750;1223;139570;-58
2022/05/16 07:08:52;;;;;;;12.00;4.40;;;;;;;17.87;46.42;99389.11;232960;1222;139449;-58
2022/05/16 07:13:55;;;;;;;14.10;4.50;;;;;;;18.03;46.38;99388.61;232810;1221;139745;-58
2022/05/16 07:18:57;;;;;;;12.20;3.20;;;;;;;18.15;45.78;99390.77;232460;1223;139667;-58
2022/05/16 07:24:01;;;;;;;10.10;3.30;;;;;;;18.25;45.27;99395.48;232254;1221;140353;-60
2022/05/16 07:29:04;;;;;;;9.40;4.00;;;;;;;18.33;45.07;99401.10;232775;1222;139747;-58
2022/05/16 07:34:07;;;;;;;8.40;3.10;;;;;;;18.43;44.99;99400.17;232417;1223;139314;-57
2022/05/16 07:39:10;;;;;;;6.00;1.30;;;;;;;18.57;45.06;99394.44;232606;1222;139508;-59
2022/05/16 07:44:13;;;;;;;5.20;1.40;;;;;;;18.76;43.59;99392.96;232587;1223;140200;-58
2022/05/16 07:49:17;;;;;;;6.70;1.90;;;;;;;18.86;42.77;99384.48;232542;1223;138931;-58
2022/05/16 07:54:20;;;;;;;5.40;2.50;;;;;;;18.95;42.46;99377.72;232726;1223;139174;-57
2022/05/16 07:59:23;;;;;;;3.80;1.50;;;;;;;19.11;41.87;99385.98;232315;1223;139125;-58
2022/05/16 08:04:26;;;;;;;3.60;1.40;;;;;;;19.24;41.29;99385.93;232269;1222;138636;-58
2022/05/16 08:14:51;;;;;;;8.20;2.20;;;;;;;19.49;40.63;99383.58;232714;1222;139637;-59
2022/05/16 08:19:55;;;;;;;4.30;1.30;;;;;;;19.58;40.36;99380.83;232726;1223;138957;-59
2022/05/16 08:24:59;;;;;;;5.00;1.80;;;;;;;19.67;40.41;99391.63;232708;1223;138963;-59
2022/05/16 08:30:09;;;;;;;7.60;1.50;;;;;;;19.73;39.97;99391.39;231655;1223;139774;-58
2022/05/16 08:35:18;;;;;;;11.40;2.40;;;;;;;19.79;39.72;99386.69;232741;1223;139025;-59
2022/05/16 08:40:40;;;;;;;5.50;1.70;;;;;;;19.93;39.61;99383.21;232830;1223;139621;-58
2022/05/16 08:45:51;;;;;;;4.40;1.60;;;;;;;20.13;39.54;99378.63;231761;1223;138939;-59
2022/05/16 08:51:09;;;;;;;7.40;1.30;;;;;;;20.24;39.39;99375.55;232786;1222;138912;-60
2022/05/16 08:56:18;;;;;;;6.00;1.40;;;;;;;20.36;38.89;99372.61;232497;1224;139168;-59
2022/05/16 09:01:44;;;;;;;2.40;1.10;;;;;;;20.47;38.65;99381.45;232766;1223;139300;-60
2022/05/16 09:07:01;;;;;;;2.30;1.10;;;;;;;20.57;38.55;99379.04;232750;1223;139372;-59
2022/05/16 09:12:13;;;;;;;3.70;1.10;;;;;;;20.73;38.31;99373.00;232846;1222;138958;-60
2022/05/16 09:17:25;;;;;;;5.30;1.70;;;;;;;20.90;37.92;99376.13;232696;1222;139419;-59
2022/05/16 09:22:54;;;;;;;5.70;1.30;;;;;;;21.04;37.51;99372.59;231785;1223;138620;-59
2022/05/16 09:33:24;;;;;;;3.80;1.20;;;;;;;21.31;37.14;99357.58;232721;1223;138579;-58
2022/05/16 09:38:28;;;;;;;8.50;1.40;;;;;;;21.41;36.97;99358.85;232749;1222;139378;-58
2022/05/16 09:43:37;;;;;;;6.80;1.40;;;;;;;21.57;36.91;99348.21;232707;1223;139205;-58
2022/05/16 09:48:40;;;;;;;4.40;1.30;;;;;;;21.81;36.56;99348.96;231461;1223;139412;-56
2022/05/16 09:53:44;;;;;;;5.10;2.00;;;;;;;21.92;36.37;99341.91;232873;1223;139283;-58
2022/05/16 09:59:09;;;;;;;5.10;1.70;;;;;;;22.11;35.86;99344.83;232419;1223;139157;-59
2022/05/16 10:04:15;;;;;;;8.60;1.60;;;;;;;22.16;35.47;99353.69;232657;1222;142488;-56
2022/05/16 10:09:38;;;;;;;3.60;1.50;;;;;;;22.31;36.11;99355.02;232717;1224;139096;-57
2022/05/16 10:14:42;;;;;;;3.40;1.40;;;;;;;22.54;35.77;99354.20;232691;1222;141164;-58
2022/05/16 10:19:46;;;;;;;4.00;1.20;;;;;;;22.75;35.64;99348.60;232654;1223;138772;-56
2022/05/16 10:24:53;;;;;;;210.60;157.60;;;;;;;22.93;35.53;99343.06;232566;1223;138495;-56
2022/05/16 10:29:59;;;;;;;10.20;7.00;;;;;;;23.08;35.35;99341.77;232688;1223;139859;-56
2022/05/16 10:35:08;;;;;;;5.00;1.50;;;;;;;23.26;35.20;99330.77;232071;1223;152329;-58
2022/05/16 10:40:22;;;;;;;9.20;1.70;;;;;;;23.42;35.13;99324.67;231851;1223;139371;-56
2022/05/16 10:45:26;;;;;;;3.60;1.20;;;;;;;23.57;35.14;99319.61;231686;1223;139656;-57
2022/05/16 10:50:37;;;;;;;5.40;1.90;;;;;;;23.72;35.17;99315.91;232626;1223;139075;-58
2022/05/16 10:56:20;;;;;;;7.50;1.80;;;;;;;23.89;34.94;99314.21;232658;1222;139142;-57
2022/05/16 11:01:40;;;;;;;4.20;1.50;;;;;;;24.04;34.27;99314.40;232398;1223;138875;-58
2022/05/16 11:06:48;;;;;;;7.70;2.00;;;;;;;24.20;33.82;99310.51;232721;1221;138706;-57
2022/05/16 11:12:05;;;;;;;9.40;1.80;;;;;;;24.28;33.82;99307.11;232312;1223;141936;-58
2022/05/16 11:17:26;;;;;;;27.00;19.10;;;;;;;24.39;33.74;99309.42;232643;1223;138750;-57
2022/05/16 11:22:47;;;;;;;6.50;2.00;;;;;;;24.46;33.93;99298.93;232505;1223;139836;-58
2022/05/16 11:28:02;;;;;;;6.80;1.50;;;;;;;24.56;33.57;99290.91;232480;1223;138815;-59
2022/05/16 11:33:25;;;;;;;7.40;2.00;;;;;;;24.76;33.69;99289.67;232437;1223;139857;-59
2022/05/16 11:38:35;;;;;;;6.20;1.40;;;;;;;24.91;33.28;99283.15;232538;1223;139270;-59
2022/05/16 11:43:50;;;;;;;5.00;1.70;;;;;;;24.98;33.20;99275.13;231792;1222;139140;-57
2022/05/16 11:49:16;;;;;;;4.50;1.40;;;;;;;25.06;33.19;99268.88;232659;1223;138654;-57
2022/05/16 11:54:52;;;;;;;105.80;85.00;;;;;;;25.28;33.30;99267.69;232723;1223;141476;-58
2022/05/16 12:05:26;;;;;;;5.50;2.00;;;;;;;25.53;32.33;99248.50;232643;1221;138838;-58
2022/05/16 12:10:31;;;;;;;5.80;1.50;;;;;;;25.75;32.05;99250.63;232010;1223;138894;-57
2022/05/16 12:15:34;;;;;;;10.20;1.50;;;;;;;25.81;31.56;99247.84;232276;1223;139393;-56
2022/05/16 12:20:58;;;;;;;6.30;1.50;;;;;;;25.86;31.29;99250.48;232086;1223;138996;-58
2022/05/16 12:26:01;;;;;;;4.20;1.40;;;;;;;25.89;30.73;99247.66;232224;1222;139096;-61
2022/05/16 12:31:06;;;;;;;6.10;1.50;;;;;;;25.93;30.44;99246.94;232345;1222;139360;-60
2022/05/16 12:36:26;;;;;;;4.10;1.30;;;;;;;25.99;30.46;99237.89;232697;1222;138926;-57
2022/05/16 12:41:55;;;;;;;6.60;1.60;;;;;;;26.10;30.08;99227.98;232797;1222;140322;-57
2022/05/16 12:47:22;;;;;;;69.50;53.90;;;;;;;26.19;30.54;99218.52;232815;1222;139639;-58
2022/05/16 12:53:12;;;;;;;9.30;6.20;;;;;;;26.36;30.49;99224.09;232779;1222;139496;-59
2022/05/16 12:58:32;;;;;;;6.50;2.80;;;;;;;26.49;30.42;99225.30;232435;1222;140723;-58
2022/05/16 13:04:20;;;;;;;6.60;2.30;;;;;;;26.53;30.09;99212.93;231771;1222;138627;-57
2022/05/16 13:09:42;;;;;;;11.00;2.10;;;;;;;26.54;29.92;99208.91;231999;1224;138999;-58
2022/05/16 13:15:24;;;;;;;11.30;2.20;;;;;;;26.61;29.77;99205.37;232657;1224;139282;-58
2022/05/16 13:20:33;;;;;;;8.10;1.70;;;;;;;26.81;29.66;99195.98;232603;1223;140256;-58
2022/05/16 13:29:21;;;;;;;4.80;1.60;;;;;;;26.95;29.54;99189.17;232681;1222;139273;-59
2022/05/16 13:30:59;;;;;;;7.80;1.80;;;;;;;27.12;29.80;99185.21;232992;1222;139229;-58
2022/05/16 13:36:18;;;;;;;3.90;1.60;;;;;;;27.25;29.39;99186.63;231626;1223;139950;-58
2022/05/16 13:41:23;;;;;;;4.50;1.80;;;;;;;27.31;28.84;99176.00;232615;1222;138789;-58
2022/05/16 13:46:29;;;;;;;5.20;1.70;;;;;;;27.48;29.00;99171.44;232799;1223;139626;-57
2022/05/16 13:51:43;;;;;;;6.90;1.90;;;;;;;27.59;29.01;99163.94;232822;1222;139222;-57
2022/05/16 13:56:50;;;;;;;6.20;1.80;;;;;;;27.79;28.92;99157.65;232367;1223;139267;-57
2022/05/16 14:02:03;;;;;;;7.20;1.90;;;;;;;27.95;28.73;99152.35;232822;1222;138969;-57
2022/05/16 14:07:16;;;;;;;9.10;2.30;;;;;;;28.07;28.75;99138.45;232909;1222;139020;-58
2022/05/16 14:12:35;;;;;;;5.10;1.60;;;;;;;28.04;28.30;99142.15;232656;1222;139705;-56
2022/05/16 14:17:54;;;;;;;7.80;2.40;;;;;;;27.90;28.10;99143.16;232801;1222;140308;-58
2022/05/16 14:22:58;;;;;;;15.00;6.50;;;;;;;27.80;24.56;99145.40;232187;1222;138679;-58
2022/05/16 14:28:18;;;;;;;10.70;4.10;;;;;;;27.75;22.27;99138.11;232636;1222;139229;-60
2022/05/16 14:33:24;;;;;;;7.70;3.00;;;;;;;27.72;22.87;99135.55;232558;1222;138582;-59
2022/05/16 14:38:28;;;;;;;4.40;1.70;;;;;;;27.48;22.21;99132.20;232554;1224;138773;-59
2022/05/16 14:43:37;;;;;;;7.50;2.40;;;;;;;27.16;22.74;99121.19;232409;1222;140467;-60
2022/05/16 14:48:40;;;;;;;8.90;2.10;;;;;;;26.94;24.16;99128.66;232966;1222;139491;-59
2022/05/16 14:53:44;;;;;;;7.20;2.60;;;;;;;26.67;23.65;99124.48;232817;1222;138479;-59
2022/05/16 14:58:48;;;;;;;12.00;2.80;;;;;;;26.31;26.46;99116.21;232634;1222;139511;-59
2022/05/16 15:04:04;;;;;;;8.20;2.40;;;;;;;25.78;28.19;99110.48;231919;1222;139372;-59
2022/05/16 15:09:14;;;;;;;6.00;1.90;;;;;;;25.50;28.09;99112.40;232447;1223;138848;-59
2022/05/16 15:14:19;;;;;;;4.30;1.70;;;;;;;25.41;27.49;99106.69;232183;1222;139400;-58
2022/05/16 15:19:22;;;;;;;8.80;4.80;;;;;;;25.33;27.72;99105.36;232575;1224;138529;-58
2022/05/16 15:24:29;;;;;;;6.40;2.20;;;;;;;25.14;28.18;99099.60;232588;1223;138888;-56
2022/05/16 15:29:48;;;;;;;5.40;2.00;;;;;;;25.00;27.92;99095.95;232544;1222;138790;-59
2022/05/16 15:34:51;;;;;;;3.50;1.90;;;;;;;24.88;28.09;99096.45;232699;1223;139653;-57
2022/05/16 15:39:55;;;;;;;4.80;2.00;;;;;;;24.77;28.00;99086.25;232706;1223;140318;-57
2022/05/16 15:54:07;;;;;;;3.60;1.60;;;;;;;24.62;28.65;99072.44;228808;1235;656641;-59
2022/05/16 15:59:20;;;;;;;6.50;1.90;;;;;;;24.48;28.79;99068.42;231798;1223;138084;-60
2022/05/16 16:10:07;;;;;;;5.50;1.60;;;;;;;24.17;29.02;99055.16;230981;1224;137851;-58
2022/05/16 16:15:24;;;;;;;5.00;1.70;;;;;;;24.00;29.67;99045.98;232810;1224;137985;-59
2022/05/16 16:20:38;;;;;;;5.30;2.10;;;;;;;23.92;29.88;99055.40;231136;1224;137818;-62
2022/05/16 16:25:54;;;;;;;3.70;1.60;;;;;;;23.84;29.54;99044.04;230905;1224;138341;-60
2022/05/16 16:31:19;;;;;;;4.70;1.70;;;;;;;23.75;29.32;99044.33;231059;1224;138095;-60
2022/05/16 16:36:45;;;;;;;10.20;1.80;;;;;;;23.68;29.55;99042.26;232855;1223;139066;-59
2022/05/16 16:42:17;;;;;;;4.00;1.70;;;;;;;23.61;29.47;99039.84;232955;1224;138074;-61
2022/05/16 16:47:25;;;;;;;3.90;1.70;;;;;;;23.60;29.38;99047.07;232643;1225;139661;-60
2022/05/16 16:58:40;;;;;;;9.40;4.50;;;;;;;23.46;30.03;99054.41;232386;1224;138229;-59
2022/05/16 17:03:48;;;;;;;5.20;1.80;;;;;;;23.39;30.51;99055.57;230982;1224;140250;-59
2022/05/16 17:09:04;;;;;;;;;;;;;;;23.37;30.67;99056.20;231098;1223;137797;-58
2022/05/16 17:14:37;;;;;;;6.30;2.10;;;;;;;23.29;30.95;99056.33;232645;1224;124589;-59
2022/05/16 17:19:47;;;;;;;5.50;1.70;;;;;;;23.26;31.65;99061.25;231254;1225;138760;-59
2022/05/16 17:25:09;;;;;;;3.10;2.20;;;;;;;23.23;31.93;99058.86;231104;1225;138114;-58
2022/05/16 17:30:20;;;;;;;5.00;2.00;;;;;;;23.24;31.84;99061.73;231590;1223;137653;-62
2022/05/16 17:35:31;;;;;;;3.70;1.90;;;;;;;23.21;32.23;99066.89;231236;1222;138702;-57
2022/05/16 17:40:54;;;;;;;10.00;4.00;;;;;;;23.15;32.44;99069.52;232421;1223;138299;-60
2022/05/16 17:46:01;;;;;;;7.60;3.40;;;;;;;23.13;33.58;99075.02;232790;1221;138917;-59
2022/05/16 17:51:48;;;;;;;4.80;1.80;;;;;;;23.07;33.70;99073.79;231410;1212;138149;-63
2022/05/16 17:57:36;;;;;;;5.10;2.10;;;;;;;22.94;34.35;99087.89;231135;1225;138815;-59
2022/05/16 18:02:55;;;;;;;6.50;1.90;;;;;;;22.81;34.96;99095.20;231138;1212;137777;-58
2022/05/16 18:08:08;;;;;;;7.60;2.10;;;;;;;22.68;35.62;99097.07;231800;1222;138371;-62
2022/05/16 18:13:22;;;;;;;5.10;3.30;;;;;;;22.55;35.91;99093.97;233533;1222;137640;-60
2022/05/16 18:18:41;;;;;;;7.30;2.80;;;;;;;22.44;36.46;99102.95;231251;1222;138859;-60
2022/05/16 18:24:01;;;;;;;33.70;28.70;;;;;;;22.34;37.31;99103.85;231233;1222;137674;-59
2022/05/16 18:29:17;;;;;;;31.40;22.40;;;;;;;22.26;36.86;99109.15;233451;1223;141104;-59
2022/05/16 18:34:30;;;;;;;18.50;10.60;;;;;;;22.21;38.11;99111.88;232069;1222;138982;-60
2022/05/16 18:39:43;;;;;;;9.70;4.20;;;;;;;22.12;37.16;99120.66;233473;1222;138902;-60
2022/05/16 18:55:44;;;;;;;7.50;3.10;;;;;;;21.68;38.73;99140.84;232883;1221;138399;-62
2022/05/16 19:00:58;;;;;;;9.10;2.90;;;;;;;21.55;38.98;99140.64;231685;1222;137999;-58
2022/05/16 19:06:08;;;;;;;6.70;2.80;;;;;;;21.40;38.92;99140.08;233393;1222;138759;-60
2022/05/16 19:11:30;;;;;;;10.10;3.00;;;;;;;21.29;39.20;99151.81;231833;1222;138783;-60
2022/05/16 19:16:39;;;;;;;36.30;31.60;;;;;;;21.18;39.54;99156.38;231216;1222;138614;-62
2022/05/16 19:21:50;;;;;;;39.20;26.00;;;;;;;21.07;38.95;99157.05;231016;1222;138125;-60
2022/05/16 19:27:05;;;;;;;7.50;3.70;;;;;;;20.91;40.08;99156.08;232977;1222;243951;-61
2022/05/16 19:32:13;;;;;;;8.00;2.90;;;;;;;20.76;39.83;99161.67;232523;1221;138568;-60
2022/05/16 19:37:26;;;;;;;66.40;52.00;;;;;;;20.56;40.36;99155.95;233205;1220;139872;-59
2022/05/16 19:42:41;;;;;;;10.00;4.10;;;;;;;20.44;40.72;99161.10;233279;1220;139553;-59
2022/05/16 19:48:07;;;;;;;10.00;3.40;;;;;;;20.27;40.92;99159.01;233148;1220;138107;-61
2022/05/16 19:53:20;;;;;;;7.70;3.20;;;;;;;20.10;40.99;99161.48;233195;1220;138544;-59
2022/05/16 19:58:30;;;;;;;9.30;3.60;;;;;;;19.93;42.07;99167.98;231861;1220;138406;-60
2022/05/16 20:03:59;;;;;;;8.70;3.70;;;;;;;19.76;41.89;99172.00;232224;1220;138208;-61
2022/05/16 20:09:18;;;;;;;8.60;3.80;;;;;;;19.59;43.06;99171.23;231257;1220;138273;-61
2022/05/16 20:14:31;;;;;;;7.80;3.70;;;;;;;19.44;43.34;99176.35;231080;1219;139486;-60
2022/05/16 20:19:44;;;;;;;13.60;4.40;;;;;;;19.31;43.83;99187.63;230982;1219;138045;-61
2022/05/16 20:30:19;;;;;;;8.50;3.40;;;;;;;19.11;43.94;99199.64;233162;1219;138216;-61
2022/05/16 20:35:37;;;;;;;9.00;3.80;;;;;;;19.03;43.65;99199.86;233322;1220;138745;-61
2022/05/16 20:40:59;;;;;;;7.20;3.70;;;;;;;19.00;43.80;99208.91;233315;1220;138679;-61
2022/05/16 20:46:13;;;;;;;9.20;3.70;;;;;;;18.96;43.66;99212.75;233323;1219;141095;-60
2022/05/16 20:51:24;;;;;;;12.30;3.80;;;;;;;18.93;43.95;99224.61;233123;1219;138299;-61
2022/05/16 20:56:41;;;;;;;6.90;3.60;;;;;;;18.85;44.99;99222.39;232837;1219;138643;-62
2022/05/16 21:02:03;;;;;;;11.60;4.20;;;;;;;18.78;45.45;99217.48;233324;1220;138722;-61
2022/05/16 21:07:14;;;;;;;11.60;3.90;;;;;;;18.70;45.09;99215.70;233495;1219;137996;-61
2022/05/16 21:12:25;;;;;;;8.60;4.70;;;;;;;18.69;43.92;99210.93;233066;1220;139324;-61
2022/05/16 21:17:48;;;;;;;8.10;3.50;;;;;;;18.63;44.58;99217.04;233292;1220;139545;-62
2022/05/16 21:23:01;;;;;;;8.60;4.00;;;;;;;18.57;44.54;99213.31;231009;1219;138208;-61
2022/05/16 21:28:12;;;;;;;7.30;3.60;;;;;;;18.53;44.77;99213.71;232985;1220;139111;-61
2022/05/16 21:33:20;;;;;;;10.10;4.20;;;;;;;18.48;44.97;99209.50;233204;1219;138551;-61
2022/05/16 21:38:24;;;;;;;7.20;3.40;;;;;;;18.44;45.10;99210.77;232987;1219;140608;-61
2022/05/16 21:50:38;;;;;;;6.80;3.10;;;;;;;18.47;44.34;99212.30;233941;1212;652159;-62
2022/05/16 21:55:41;;;;;;;8.60;3.20;;;;;;;18.39;44.26;99209.20;235445;1207;138386;-62
2022/05/16 22:00:45;;;;;;;7.70;3.20;;;;;;;18.32;44.89;99216.30;234537;1207;137726;-62
2022/05/16 22:05:52;;;;;;;6.30;2.80;;;;;;;18.27;44.47;99219.71;235183;1208;138039;-62
2022/05/16 22:10:58;;;;;;;9.70;3.10;;;;;;;18.18;44.68;99214.70;234753;1207;138341;-61
2022/05/16 22:16:01;;;;;;;5.50;2.60;;;;;;;18.11;44.73;99213.35;235059;1209;138021;-62
2022/05/16 22:21:04;;;;;;;5.10;2.50;;;;;;;18.04;45.35;99206.52;235210;1204;138270;-61
2022/05/16 22:26:07;;;;;;;8.10;2.70;;;;;;;18.05;44.02;99208.19;234106;1203;138054;-62
2022/05/16 22:31:11;;;;;;;5.60;2.60;;;;;;;18.06;43.84;99203.48;235666;1203;138482;-63
2022/05/16 22:36:14;;;;;;;6.10;2.40;;;;;;;18.06;43.78;99199.71;235243;1203;137929;-62
2022/05/16 22:41:18;;;;;;;7.40;2.70;;;;;;;18.05;43.58;99200.13;235079;1203;139973;-62
2022/05/16 22:46:21;;;;;;;6.20;2.50;;;;;;;18.02;43.85;99195.55;234177;1203;140720;-61
2022/05/16 22:51:24;;;;;;;3.90;2.20;;;;;;;18.00;43.99;99192.49;235594;1203;138400;-61
2022/05/16 22:56:27;;;;;;;3.20;2.20;;;;;;;17.96;43.68;99190.47;235098;1203;138094;-60
2022/05/16 23:06:52;;;;;;;8.40;2.50;;;;;;;17.94;44.28;99192.80;235625;1204;138358;-60
2022/05/16 23:11:55;;;;;;;5.90;2.40;;;;;;;17.90;44.13;99190.85;235500;1203;137771;-60
2022/05/16 23:17:01;;;;;;;5.50;2.20;;;;;;;17.85;44.36;99190.11;235401;1203;138732;-61
2022/05/16 23:22:05;;;;;;;6.90;2.40;;;;;;;17.83;44.11;99192.73;235376;1204;138900;-61
2022/05/16 23:27:08;;;;;;;4.40;2.40;;;;;;;17.78;44.40;99194.61;235334;1204;138097;-60
2022/05/16 23:32:11;;;;;;;4.70;2.00;;;;;;;17.75;44.92;99188.96;233909;1202;138675;-60
2022/05/16 23:37:14;;;;;;;4.80;2.30;;;;;;;17.70;44.78;99187.18;234318;1204;137790;-61
2022/05/16 23:42:20;;;;;;;5.20;2.20;;;;;;;17.65;44.64;99182.30;235167;1204;138460;-60
2022/05/16 23:47:23;;;;;;;4.20;2.00;;;;;;;17.61;44.77;99176.40;235460;1204;138370;-61
2022/05/16 23:52:26;;;;;;;5.70;2.20;;;;;;;17.55;44.74;99173.48;235669;1203;137918;-62
2022/05/16 23:57:30;;;;;;;4.70;2.40;;;;;;;17.50;45.10;99164.95;235374;1204;137784;-61
